createdAt,value
2022-08-10T00:00:57.125Z,96146.13
2022-08-10T00:03:26.196Z,96146.69
2022-08-10T00:05:56.437Z,96146.91
2022-08-10T00:08:25.979Z,96136.25
2022-08-10T00:10:54.116Z,96149.13
2022-08-10T00:13:23.099Z,96146.00
2022-08-10T00:15:55.032Z,96145.53
2022-08-10T00:18:35.196Z,96145.03
2022-08-10T00:21:06.663Z,96139.91
2022-08-10T00:23:34.485Z,96141.06
2022-08-10T00:26:02.383Z,96147.84
2022-08-10T00:28:30.096Z,96147.03
2022-08-10T00:30:58.022Z,96143.28
2022-08-10T00:33:25.740Z,96144.91
2022-08-10T00:35:53.512Z,96148.56
2022-08-10T00:38:22.648Z,96147.91
2022-08-10T00:40:50.405Z,96145.28
2022-08-10T00:43:23.338Z,96144.78
2022-08-10T00:45:58.823Z,96148.78
2022-08-10T00:48:29.099Z,96137.38
2022-08-10T00:50:57.324Z,96142.31
2022-08-10T00:53:26.427Z,96144.97
2022-08-10T00:57:09.897Z,96143.34
2022-08-10T00:58:42.560Z,96140.34
2022-08-10T01:01:11.055Z,96134.44
2022-08-10T01:04:36.426Z,96141.84
2022-08-10T01:06:54.455Z,96137.88
2022-08-10T01:09:33.049Z,96138.72
2022-08-10T01:12:39.224Z,96133.09
2022-08-10T01:15:06.082Z,96139.69
2022-08-10T01:17:50.521Z,96144.31
2022-08-10T01:20:30.151Z,96145.97
2022-08-10T01:23:26.626Z,96140.38
2022-08-10T01:26:30.449Z,96135.44
2022-08-10T01:29:14.188Z,96142.34
2022-08-10T01:31:46.068Z,96128.94
2022-08-10T01:34:20.964Z,96133.56
2022-08-10T01:36:52.418Z,96129.75
2022-08-10T01:39:24.789Z,96128.44
2022-08-10T01:41:56.883Z,96134.03
2022-08-10T01:44:30.830Z,96133.72
2022-08-10T01:47:22.033Z,96137.63
2022-08-10T01:49:54.935Z,96134.16
2022-08-10T01:52:24.813Z,96131.88
2022-08-10T01:54:56.205Z,96126.44
2022-08-10T01:57:26.543Z,96128.25
2022-08-10T02:00:02.041Z,96128.25
2022-08-10T02:02:32.419Z,96122.78
2022-08-10T02:05:03.258Z,96129.38
2022-08-10T02:07:33.582Z,96129.22
2022-08-10T02:10:10.632Z,96125.09
2022-08-10T02:12:40.546Z,96126.75
2022-08-10T02:15:12.619Z,96125.25
2022-08-10T02:18:00.902Z,96118.81
2022-08-10T02:20:35.053Z,96112.06
2022-08-10T02:23:08.450Z,96119.13
2022-08-10T02:25:42.210Z,96117.63
2022-08-10T02:28:29.361Z,96115.97
2022-08-10T02:31:02.722Z,96117.94
2022-08-10T02:33:37.302Z,96114.34
2022-08-10T02:36:07.336Z,96112.50
2022-08-10T02:38:58.597Z,96108.66
2022-08-10T02:45:03.660Z,96109.63
2022-08-10T02:45:15.406Z,96113.56
2022-08-10T02:47:22.199Z,96105.84
2022-08-10T02:49:56.723Z,96105.69
2022-08-10T02:52:29.749Z,96097.78
2022-08-10T02:55:14.472Z,96110.94
2022-08-10T02:58:12.659Z,96103.03
2022-08-10T03:00:44.680Z,96107.34
2022-08-10T03:03:18.759Z,96107.16
2022-08-10T03:05:54.597Z,96107.47
2022-08-10T03:08:28.726Z,96103.50
2022-08-10T03:10:58.210Z,96093.50
2022-08-10T03:13:27.554Z,96098.91
2022-08-10T03:15:57.277Z,96094.28
2022-08-10T03:18:26.247Z,96104.28
2022-08-10T03:20:57.161Z,96099.19
2022-08-10T03:23:28.006Z,96095.75
2022-08-10T03:25:58.547Z,96091.78
2022-08-10T03:28:28.720Z,96092.91
2022-08-10T03:30:58.108Z,96106.59
2022-08-10T03:33:29.752Z,96094.75
2022-08-10T03:36:43.261Z,96094.69
2022-08-10T03:38:51.952Z,96091.28
2022-08-10T03:41:24.331Z,96091.56
2022-08-10T03:43:54.481Z,96090.09
2022-08-10T03:46:24.676Z,96094.34
2022-08-10T03:48:56.969Z,96093.22
2022-08-10T03:51:27.068Z,96096.00
2022-08-10T03:54:05.771Z,96095.84
2022-08-10T03:56:36.758Z,96096.94
2022-08-10T03:59:05.557Z,96095.09
2022-08-10T04:02:44.710Z,96095.69
2022-08-10T04:04:24.579Z,96088.97
2022-08-10T04:06:56.602Z,96097.41
2022-08-10T04:09:43.186Z,96092.31
2022-08-10T04:12:15.243Z,96104.78
2022-08-10T04:14:51.431Z,96105.63
2022-08-10T04:18:00.221Z,96105.94
2022-08-10T04:20:19.552Z,96105.09
2022-08-10T04:22:52.133Z,96109.56
2022-08-10T04:25:21.992Z,96115.13
2022-08-10T04:27:50.951Z,96110.22
2022-08-10T04:30:19.160Z,96119.56
2022-08-10T04:32:49.788Z,96114.13
2022-08-10T04:35:19.981Z,96111.63
2022-08-10T04:37:50.610Z,96112.97
2022-08-10T04:40:29.234Z,96119.06
2022-08-10T04:43:03.367Z,96117.19
2022-08-10T04:45:49.043Z,96117.72
2022-08-10T04:48:43.296Z,96121.47
2022-08-10T04:51:18.115Z,96120.47
2022-08-10T04:54:03.922Z,96124.13
2022-08-10T04:56:35.815Z,96115.88
2022-08-10T04:59:03.641Z,96115.09
2022-08-10T05:02:12.266Z,96117.09
2022-08-10T05:04:35.706Z,96122.53
2022-08-10T05:07:10.486Z,96113.72
2022-08-10T05:10:01.226Z,96110.75
2022-08-10T05:12:29.290Z,96116.97
2022-08-10T05:14:57.256Z,96123.25
2022-08-10T05:17:25.435Z,96122.53
2022-08-10T05:20:04.088Z,96123.91
2022-08-10T05:22:33.479Z,96120.19
2022-08-10T05:25:02.730Z,96125.03
2022-08-10T05:27:30.421Z,96122.59
2022-08-10T05:30:01.994Z,96130.03
2022-08-10T05:32:31.199Z,96132.84
2022-08-10T05:34:59.268Z,96127.91
2022-08-10T05:38:10.375Z,96128.72
2022-08-10T05:40:16.996Z,96124.31
2022-08-10T05:42:44.996Z,96128.66
2022-08-10T05:45:21.272Z,96130.31
2022-08-10T05:48:58.146Z,96131.13
2022-08-10T05:50:37.129Z,96133.97
2022-08-10T05:53:58.954Z,96129.38
2022-08-10T05:55:55.248Z,96127.88
2022-08-10T05:58:23.127Z,96132.53
2022-08-10T06:00:54.367Z,96126.44
2022-08-10T06:03:26.866Z,96126.50
2022-08-10T06:05:56.375Z,96133.63
2022-08-10T06:08:26.944Z,96143.31
2022-08-10T06:12:23.629Z,96141.53
2022-08-10T06:14:13.870Z,96140.53
2022-08-10T06:16:44.884Z,96141.53
2022-08-10T06:19:14.554Z,96141.34
2022-08-10T06:22:00.448Z,96126.69
2022-08-10T06:24:31.011Z,96125.41
2022-08-10T06:27:01.122Z,96127.03
2022-08-10T06:29:33.062Z,96126.72
2022-08-10T06:32:02.523Z,96124.59
2022-08-10T06:34:33.874Z,96126.44
2022-08-10T06:37:04.626Z,96128.41
2022-08-10T06:39:34.948Z,96117.88
2022-08-10T06:42:16.011Z,96119.03
2022-08-10T06:44:50.084Z,96117.09
2022-08-10T06:47:22.962Z,96105.03
2022-08-10T06:49:53.617Z,96112.66
2022-08-10T06:52:29.758Z,96105.72
2022-08-10T06:55:00.507Z,96110.50
2022-08-10T06:57:33.730Z,96116.72
2022-08-10T07:00:03.683Z,96116.72
2022-08-10T07:02:42.340Z,96115.75
2022-08-10T07:05:15.333Z,96121.53
2022-08-10T07:07:45.030Z,96113.28
2022-08-10T07:10:14.386Z,96101.19
2022-08-10T07:12:45.551Z,96109.75
2022-08-10T07:15:17.311Z,96107.81
2022-08-10T07:17:46.118Z,96106.75
2022-08-10T07:20:17.787Z,96103.47
2022-08-10T07:23:51.749Z,96098.66
2022-08-10T07:25:38.543Z,96090.91
2022-08-10T07:28:09.018Z,96095.38
2022-08-10T07:30:39.240Z,96091.41
2022-08-10T07:33:08.294Z,96090.41
2022-08-10T07:35:42.196Z,96087.56
2022-08-10T07:38:16.958Z,96092.66
2022-08-10T07:40:45.770Z,96086.22
2022-08-10T07:43:17.298Z,96087.50
2022-08-10T07:45:47.095Z,96085.88
2022-08-10T07:48:18.211Z,96090.63
2022-08-10T07:50:48.004Z,96092.75
2022-08-10T07:53:22.486Z,96084.34
2022-08-10T07:56:04.785Z,96080.72
2022-08-10T07:58:51.321Z,96087.31
2022-08-10T08:01:24.121Z,96087.94
2022-08-10T08:04:05.397Z,96085.47
2022-08-10T08:06:40.229Z,96084.78
2022-08-10T08:09:08.990Z,96082.56
2022-08-10T08:11:38.921Z,96088.13
2022-08-10T08:14:09.791Z,96081.50
2022-08-10T08:16:40.827Z,96088.34
2022-08-10T08:19:31.262Z,96080.41
2022-08-10T08:24:10.889Z,96079.91
2022-08-10T08:24:52.158Z,96083.81
2022-08-10T08:27:22.185Z,96085.50
2022-08-10T08:29:53.411Z,96097.91
2022-08-10T08:32:23.965Z,96094.09
2022-08-10T08:34:56.927Z,96090.56
2022-08-10T08:38:31.941Z,96088.91
2022-08-10T08:40:20.149Z,96089.63
2022-08-10T08:43:31.370Z,96092.31
2022-08-10T08:46:38.475Z,96096.19
2022-08-10T08:50:07.634Z,96090.25
2022-08-10T08:52:36.471Z,96089.66
2022-08-10T08:56:04.808Z,96091.13
2022-08-10T08:58:09.452Z,96092.69
2022-08-10T09:00:44.787Z,96091.53
2022-08-10T09:03:38.885Z,96088.13
2022-08-10T09:06:21.275Z,96089.59
2022-08-10T09:09:04.273Z,96091.47
2022-08-10T09:11:45.662Z,96082.28
2022-08-10T09:14:25.660Z,96085.09
2022-08-10T09:17:00.642Z,96083.38
2022-08-10T09:19:38.863Z,96092.41
2022-08-10T09:22:17.946Z,96085.19
2022-08-10T09:24:52.944Z,96087.50
2022-08-10T09:27:22.689Z,96079.19
2022-08-10T09:36:16.201Z,96084.47
2022-08-10T09:36:25.565Z,96087.16
2022-08-10T09:38:27.908Z,96090.88
2022-08-10T09:41:05.077Z,96073.72
2022-08-10T09:43:49.308Z,96080.81
2022-08-10T09:46:27.849Z,96080.03
2022-08-10T09:49:04.261Z,96079.09
2022-08-10T09:51:46.643Z,96083.81
2022-08-10T09:54:37.161Z,96069.13
2022-08-10T09:57:43.816Z,96077.84
2022-08-10T10:00:10.648Z,96078.44
2022-08-10T10:02:52.312Z,96083.00
2022-08-10T10:05:31.907Z,96083.56
2022-08-10T10:08:08.470Z,96080.19
2022-08-10T10:10:47.553Z,96080.50
2022-08-10T10:13:49.978Z,96068.50
2022-08-10T10:16:23.234Z,96075.81
2022-08-10T10:19:01.256Z,96074.88
2022-08-10T10:21:56.129Z,96067.25
2022-08-10T10:24:36.595Z,96077.84
2022-08-10T10:27:16.458Z,96069.22
2022-08-10T10:29:56.358Z,96076.09
2022-08-10T10:32:36.695Z,96067.69
2022-08-10T10:35:16.064Z,96066.16
2022-08-10T10:38:01.832Z,96061.53
2022-08-10T10:40:41.065Z,96064.63
2022-08-10T10:43:23.131Z,96064.34
2022-08-10T10:46:04.398Z,96065.13
2022-08-10T10:48:41.734Z,96058.56
2022-08-10T10:51:17.419Z,96060.34
2022-08-10T10:53:50.695Z,96050.09
2022-08-10T10:56:31.807Z,96055.59
2022-08-10T10:59:33.252Z,96061.53
2022-08-10T11:02:04.919Z,96061.06
2022-08-10T11:04:41.718Z,96062.88
2022-08-10T11:07:17.885Z,96060.34
2022-08-10T11:10:04.763Z,96062.25
2022-08-10T11:12:47.745Z,96069.94
2022-08-10T11:15:26.181Z,96063.50
2022-08-10T11:17:59.175Z,96060.97
2022-08-10T11:20:38.088Z,96067.31
2022-08-10T11:23:18.573Z,96076.78
2022-08-10T11:25:51.856Z,96073.75
2022-08-10T11:28:26.942Z,96062.47
2022-08-10T11:31:02.685Z,96077.03
2022-08-10T11:34:03.768Z,96074.56
2022-08-10T11:36:32.330Z,96069.81
2022-08-10T11:39:17.124Z,96078.66
2022-08-10T11:42:12.442Z,96065.31
2022-08-10T11:44:50.210Z,96071.47
2022-08-10T11:47:21.468Z,96070.00
2022-08-10T11:49:55.135Z,96071.25
2022-08-10T11:52:34.161Z,96064.22
2022-08-10T11:55:10.812Z,96068.72
2022-08-10T11:57:53.117Z,96065.75
2022-08-10T12:00:24.204Z,96061.97
2022-08-10T12:02:56.486Z,96057.59
2022-08-10T12:05:51.533Z,96058.75
2022-08-10T12:10:03.806Z,96059.34
2022-08-10T12:11:07.881Z,96051.53
2022-08-10T12:13:53.818Z,96054.53
2022-08-10T12:16:30.403Z,96052.56
2022-08-10T12:19:03.898Z,96051.28
2022-08-10T12:21:35.260Z,96038.66
2022-08-10T12:24:10.469Z,96049.97
2022-08-10T12:26:45.114Z,96052.88
2022-08-10T12:29:24.835Z,96033.59
2022-08-10T12:32:00.350Z,96049.00
2022-08-10T12:34:33.346Z,96039.81
2022-08-10T12:37:08.407Z,96030.53
2022-08-10T12:39:44.621Z,96033.72
2022-08-10T12:42:36.828Z,96029.31
2022-08-10T12:45:15.650Z,96035.88
2022-08-10T12:47:52.196Z,96025.03
2022-08-10T12:50:31.122Z,96034.50
2022-08-10T12:53:06.549Z,96028.84
2022-08-10T12:55:35.457Z,96021.84
2022-08-10T12:58:56.721Z,96020.03
2022-08-10T13:01:15.019Z,96030.06
2022-08-10T13:04:22.916Z,96023.38
2022-08-10T13:06:38.534Z,96022.59
2022-08-10T13:09:13.848Z,96024.47
2022-08-10T13:12:34.809Z,96014.72
2022-08-10T13:14:38.418Z,96003.78
2022-08-10T13:17:08.799Z,96010.19
2022-08-10T13:19:55.085Z,96015.00
2022-08-10T13:22:28.656Z,96015.28
2022-08-10T13:25:02.434Z,96013.03
2022-08-10T13:28:00.657Z,96014.72
2022-08-10T13:30:37.201Z,95997.78
2022-08-10T13:33:06.930Z,96005.13
2022-08-10T13:35:38.496Z,96007.66
2022-08-10T13:38:08.423Z,95998.66
2022-08-10T13:40:37.280Z,95988.34
2022-08-10T13:43:09.576Z,95992.25
2022-08-10T13:45:45.146Z,95989.75
2022-08-10T13:48:21.207Z,95996.59
2022-08-10T13:50:52.519Z,95989.22
2022-08-10T13:53:21.846Z,95983.28
2022-08-10T13:55:53.923Z,95980.00
2022-08-10T13:58:25.857Z,95983.28
2022-08-10T14:00:55.778Z,95980.81
2022-08-10T14:03:25.420Z,95996.03
2022-08-10T14:05:55.647Z,95983.16
2022-08-10T14:08:27.775Z,95986.28
2022-08-10T14:11:08.569Z,95980.75
2022-08-10T14:13:44.261Z,95974.00
2022-08-10T14:16:13.321Z,95976.53
2022-08-10T14:18:45.016Z,95959.97
2022-08-10T14:21:15.268Z,95972.91
2022-08-10T14:23:53.051Z,95967.03
2022-08-10T14:26:24.506Z,95962.16
2022-08-10T14:28:55.733Z,95967.13
2022-08-10T14:31:27.050Z,95963.38
2022-08-10T14:34:00.160Z,95963.50
2022-08-10T14:36:39.111Z,95952.72
2022-08-10T14:39:09.728Z,95949.25
2022-08-10T14:42:01.748Z,95947.84
2022-08-10T14:44:30.431Z,95957.31
2022-08-10T14:47:20.122Z,95946.63
2022-08-10T14:49:57.822Z,95942.56
2022-08-10T14:52:29.733Z,95945.84
2022-08-10T14:55:04.413Z,95945.25
2022-08-10T14:58:17.145Z,95946.78
2022-08-10T15:00:33.844Z,95947.63
2022-08-10T15:03:11.000Z,95935.03
2022-08-10T15:05:59.080Z,95945.28
2022-08-10T15:08:36.941Z,95946.00
2022-08-10T15:11:06.107Z,95944.69
2022-08-10T15:13:36.716Z,95947.25
2022-08-10T15:16:13.116Z,95951.09
2022-08-10T15:18:57.468Z,95943.25
2022-08-10T15:21:37.819Z,95939.41
2022-08-10T15:24:36.429Z,95935.06
2022-08-10T15:27:08.728Z,95934.03
2022-08-10T15:29:57.441Z,95927.84
2022-08-10T15:32:51.941Z,95929.88
2022-08-10T15:35:47.922Z,95930.25
2022-08-10T15:38:31.355Z,95932.03
2022-08-10T15:41:06.412Z,95927.50
2022-08-10T15:43:44.741Z,95926.09
2022-08-10T15:46:17.253Z,95925.09
2022-08-10T15:48:48.150Z,95920.50
2022-08-10T15:51:22.283Z,95918.66
2022-08-10T15:54:03.397Z,95910.22
2022-08-10T15:56:41.183Z,95905.63
2022-08-10T15:59:13.723Z,95907.63
2022-08-10T16:02:13.897Z,95901.16
2022-08-10T16:04:37.687Z,95904.38
2022-08-10T16:07:09.902Z,95906.91
2022-08-10T16:10:23.379Z,95908.63
2022-08-10T16:12:40.080Z,95909.16
2022-08-10T16:15:12.460Z,95902.44
2022-08-10T16:17:55.584Z,95902.03
2022-08-10T16:20:31.314Z,95911.75
2022-08-10T16:23:02.240Z,95902.97
2022-08-10T16:25:48.436Z,95901.78
2022-08-10T16:28:23.785Z,95899.69
2022-08-10T16:30:54.127Z,95895.72
2022-08-10T16:33:27.535Z,95904.38
2022-08-10T16:36:18.573Z,95895.91
2022-08-10T16:38:49.847Z,95897.69
2022-08-10T16:42:04.219Z,95900.84
2022-08-10T16:44:14.996Z,95892.81
2022-08-10T16:46:45.636Z,95895.47
2022-08-10T16:49:14.580Z,95890.44
2022-08-10T16:51:47.546Z,95894.28
2022-08-10T16:54:18.214Z,95895.84
2022-08-10T16:56:49.244Z,95889.88
2022-08-10T16:59:24.714Z,95899.16
2022-08-10T17:01:54.182Z,95892.28
2022-08-10T17:04:24.323Z,95899.34
2022-08-10T17:06:56.357Z,95892.81
2022-08-10T17:09:28.008Z,95897.53
2022-08-10T17:11:58.135Z,95890.69
2022-08-10T17:14:29.606Z,95895.50
2022-08-10T17:17:01.198Z,95896.59
2022-08-10T17:19:32.665Z,95892.78
2022-08-10T17:22:05.007Z,95896.38
2022-08-10T17:24:35.676Z,95888.88
2022-08-10T17:28:05.678Z,95889.25
2022-08-10T17:30:04.722Z,95895.72
2022-08-10T17:32:44.026Z,95894.34
2022-08-10T17:35:16.788Z,95895.22
2022-08-10T17:37:49.981Z,95884.34
2022-08-10T17:40:19.892Z,95879.47
2022-08-10T17:42:50.445Z,95884.63
2022-08-10T17:45:47.595Z,95884.25
2022-08-10T17:48:11.114Z,95884.88
2022-08-10T17:50:42.247Z,95890.59
2022-08-10T17:53:16.224Z,95887.81
2022-08-10T17:55:47.153Z,95892.50
2022-08-10T17:58:17.755Z,95897.88
2022-08-10T18:00:49.655Z,95898.50
2022-08-10T18:03:25.699Z,95901.31
2022-08-10T18:05:56.031Z,95895.19
2022-08-10T18:08:29.124Z,95899.91
2022-08-10T18:10:59.926Z,95905.22
2022-08-10T18:13:55.671Z,95905.66
2022-08-10T18:16:25.108Z,95914.66
2022-08-10T18:19:00.057Z,95911.38
2022-08-10T18:21:32.267Z,95911.38
2022-08-10T18:24:04.623Z,95913.19
2022-08-10T18:26:37.030Z,95915.69
2022-08-10T18:29:10.756Z,95914.25
2022-08-10T18:31:44.516Z,95918.09
2022-08-10T18:34:16.289Z,95917.50
2022-08-10T18:36:47.790Z,95919.13
2022-08-10T18:39:21.111Z,95928.25
2022-08-10T18:42:00.744Z,95931.94
2022-08-10T18:44:37.057Z,95935.59
2022-08-10T18:47:13.815Z,95935.78
2022-08-10T18:49:58.808Z,95942.91
2022-08-10T18:52:29.354Z,95940.22
2022-08-10T18:55:14.512Z,95956.34
2022-08-10T18:58:15.936Z,95953.03
2022-08-10T19:01:02.296Z,95950.25
2022-08-10T19:03:54.108Z,95943.25
2022-08-10T19:06:42.097Z,95952.28
2022-08-10T19:09:47.300Z,95954.25
2022-08-10T19:12:33.860Z,95950.06
2022-08-10T19:15:15.702Z,95956.34
2022-08-10T19:18:03.708Z,95955.28
2022-08-10T19:20:40.311Z,95952.97
2022-08-10T19:23:19.371Z,95957.03
2022-08-10T19:26:39.288Z,95959.13
2022-08-10T19:28:48.155Z,95957.66
2022-08-10T19:31:22.097Z,95955.16
2022-08-10T19:34:11.793Z,95959.63
2022-08-10T19:36:51.831Z,95959.75
2022-08-10T19:39:26.359Z,95961.75
2022-08-10T19:42:11.261Z,95959.50
2022-08-10T19:44:47.374Z,95961.88
2022-08-10T19:47:25.553Z,95962.22
2022-08-10T19:50:00.277Z,95959.78
2022-08-10T19:52:35.637Z,95958.91
2022-08-10T19:55:15.425Z,95954.00
2022-08-10T19:57:53.030Z,95961.25
2022-08-10T20:00:26.950Z,95957.97
2022-08-10T20:03:12.319Z,95960.03
2022-08-10T20:06:18.858Z,95955.31
2022-08-10T20:08:45.696Z,95959.19
2022-08-10T20:11:44.421Z,95958.72
2022-08-10T20:14:22.249Z,95959.88
2022-08-10T20:16:55.808Z,95954.56
2022-08-10T20:19:53.441Z,95955.38
2022-08-10T20:22:28.732Z,95955.53
2022-08-10T20:25:09.424Z,95957.28
2022-08-10T20:27:59.054Z,95954.00
2022-08-10T20:30:32.641Z,95960.06
2022-08-10T20:33:08.939Z,95950.72
2022-08-10T20:35:48.960Z,95944.16
2022-08-10T20:38:27.172Z,95955.88
2022-08-10T20:41:07.550Z,95950.00
2022-08-10T20:43:42.969Z,95950.50
2022-08-10T20:46:21.399Z,95944.56
2022-08-10T20:48:56.289Z,95946.94
2022-08-10T20:51:58.990Z,95949.16
2022-08-10T20:54:19.875Z,95948.09
2022-08-10T20:57:54.243Z,95941.50
2022-08-10T21:00:07.431Z,95938.59
2022-08-10T21:03:07.566Z,95938.47
2022-08-10T21:05:44.349Z,95933.47
2022-08-10T21:08:18.295Z,95937.03
2022-08-10T21:11:03.875Z,95932.47
2022-08-10T21:14:01.888Z,95932.84
2022-08-10T21:16:41.822Z,95934.97
2022-08-10T21:19:53.730Z,95934.69
2022-08-10T21:22:28.923Z,95928.31
2022-08-10T21:25:01.451Z,95931.47
2022-08-10T21:27:49.178Z,95930.19
2022-08-10T21:30:37.976Z,95928.75
2022-08-10T21:33:11.883Z,95925.44
2022-08-10T21:35:45.000Z,95936.59
2022-08-10T21:38:24.489Z,95942.31
2022-08-10T21:41:57.202Z,95936.84
2022-08-10T21:44:52.939Z,95932.09
2022-08-10T21:48:07.061Z,95933.13
2022-08-10T21:51:01.938Z,95932.00
2022-08-10T21:53:55.103Z,95931.13
2022-08-10T21:56:46.200Z,95925.34
2022-08-10T21:59:47.890Z,95927.53
2022-08-10T22:02:40.978Z,95923.16
2022-08-10T22:05:43.731Z,95926.63
2022-08-10T22:08:31.024Z,95923.88
2022-08-10T22:11:17.819Z,95920.59
2022-08-10T22:14:09.534Z,95915.38
2022-08-10T22:17:03.964Z,95916.72
2022-08-10T22:19:52.693Z,95905.88
2022-08-10T22:22:56.369Z,95902.84
2022-08-10T22:25:55.084Z,95901.94
2022-08-10T22:28:40.633Z,95903.78
2022-08-10T22:31:46.303Z,95896.81
2022-08-10T22:34:47.772Z,95896.06
2022-08-10T22:37:53.287Z,95899.88
2022-08-10T22:40:40.737Z,95892.97
2022-08-10T22:43:36.434Z,95892.84
2022-08-10T22:46:29.800Z,95893.75
2022-08-10T22:48:59.530Z,95894.59
2022-08-10T22:51:36.705Z,95893.41
2022-08-10T22:54:31.935Z,95892.53
2022-08-10T22:57:19.182Z,95891.63
2022-08-10T22:59:47.644Z,95893.84
2022-08-10T23:02:26.248Z,95891.50
2022-08-10T23:04:58.251Z,95899.13
2022-08-10T23:07:29.186Z,95888.63
2022-08-10T23:10:02.550Z,95895.81
2022-08-10T23:12:36.142Z,95892.78
2022-08-10T23:15:25.412Z,95892.97
2022-08-10T23:18:15.739Z,95886.13
2022-08-10T23:20:45.954Z,95886.94
2022-08-10T23:23:23.693Z,95887.59
2022-08-10T23:25:56.824Z,95878.19
2022-08-10T23:28:38.848Z,95879.53
2022-08-10T23:31:13.211Z,95877.44
2022-08-10T23:33:43.576Z,95877.34
2022-08-10T23:36:33.764Z,95876.91
2022-08-10T23:39:26.415Z,95871.13
2022-08-10T23:42:04.586Z,95868.50
2022-08-10T23:44:38.012Z,95861.75
2022-08-10T23:47:07.018Z,95861.69
2022-08-10T23:49:36.739Z,95865.06
2022-08-10T23:52:11.748Z,95862.91
2022-08-10T23:54:45.742Z,95861.63
2022-08-10T23:57:19.496Z,95860.31
2022-08-10T23:59:54.041Z,95866.59
